sensor_id;sensor_type;location;lat;lon;timestamp;pressure;altitude;pressure_sealevel;temperature;humidity
9261;BME280;4667;42.726;23.252;2023-07-31T00:02:20;94890.94;;;20.77;64.54
9261;BME280;4667;42.726;23.252;2023-07-31T00:04:46;94890.66;;;20.79;64.34
9261;BME280;4667;42.726;23.252;2023-07-31T00:07:14;94884.03;;;20.76;64.60
9261;BME280;4667;42.726;23.252;2023-07-31T00:09:41;94887.03;;;20.83;64.42
9261;BME280;4667;42.726;23.252;2023-07-31T00:12:09;94880.22;;;20.86;64.19
9261;BME280;4667;42.726;23.252;2023-07-31T00:14:36;94890.31;;;20.89;64.26
9261;BME280;4667;42.726;23.252;2023-07-31T00:17:03;94886.00;;;20.96;64.52
9261;BME280;4667;42.726;23.252;2023-07-31T00:19:29;94881.28;;;20.93;64.64
9261;BME280;4667;42.726;23.252;2023-07-31T00:21:56;94879.69;;;21.01;64.53
9261;BME280;4667;42.726;23.252;2023-07-31T00:24:23;94877.81;;;20.93;66.00
9261;BME280;4667;42.726;23.252;2023-07-31T00:26:49;94866.97;;;20.89;65.67
9261;BME280;4667;42.726;23.252;2023-07-31T00:29:18;94860.66;;;20.85;65.80
9261;BME280;4667;42.726;23.252;2023-07-31T00:31:44;94859.59;;;20.77;66.23
9261;BME280;4667;42.726;23.252;2023-07-31T00:34:11;94840.56;;;20.62;66.17
9261;BME280;4667;42.726;23.252;2023-07-31T00:36:38;94849.72;;;20.61;66.72
9261;BME280;4667;42.726;23.252;2023-07-31T00:39:05;94852.56;;;20.56;67.02
9261;BME280;4667;42.726;23.252;2023-07-31T00:41:31;94859.63;;;20.69;67.04
9261;BME280;4667;42.726;23.252;2023-07-31T00:43:58;94827.25;;;20.27;68.39
9261;BME280;4667;42.726;23.252;2023-07-31T00:46:26;94855.84;;;20.61;67.49
9261;BME280;4667;42.726;23.252;2023-07-31T00:48:53;94856.19;;;20.60;67.89
9261;BME280;4667;42.726;23.252;2023-07-31T00:51:20;94849.28;;;20.50;68.29
9261;BME280;4667;42.726;23.252;2023-07-31T00:53:47;94786.78;;;20.11;68.39
9261;BME280;4667;42.726;23.252;2023-07-31T00:56:13;94847.22;;;20.47;68.85
9261;BME280;4667;42.726;23.252;2023-07-31T00:58:40;94840.78;;;20.48;69.14
9261;BME280;4667;42.726;23.252;2023-07-31T01:01:07;94842.78;;;20.60;69.09
9261;BME280;4667;42.726;23.252;2023-07-31T01:03:35;94844.38;;;20.43;68.94
9261;BME280;4667;42.726;23.252;2023-07-31T01:06:13;94849.28;;;20.33;69.29
9261;BME280;4667;42.726;23.252;2023-07-31T01:08:44;94849.56;;;20.40;69.78
9261;BME280;4667;42.726;23.252;2023-07-31T01:11:15;94833.34;;;20.45;69.44
9261;BME280;4667;42.726;23.252;2023-07-31T01:13:44;94836.34;;;20.43;68.98
9261;BME280;4667;42.726;23.252;2023-07-31T01:16:12;94837.44;;;20.42;69.06
9261;BME280;4667;42.726;23.252;2023-07-31T01:18:40;94832.88;;;20.43;69.22
9261;BME280;4667;42.726;23.252;2023-07-31T01:21:33;94825.47;;;20.31;69.25
9261;BME280;4667;42.726;23.252;2023-07-31T01:24:20;94830.38;;;20.29;69.96
9261;BME280;4667;42.726;23.252;2023-07-31T01:26:55;94826.25;;;20.32;69.75
9261;BME280;4667;42.726;23.252;2023-07-31T01:29:29;94830.66;;;20.36;69.92
9261;BME280;4667;42.726;23.252;2023-07-31T01:32:01;94823.75;;;20.35;69.67
9261;BME280;4667;42.726;23.252;2023-07-31T01:34:29;94830.72;;;20.28;69.83
9261;BME280;4667;42.726;23.252;2023-07-31T01:36:55;94828.97;;;20.06;70.77
9261;BME280;4667;42.726;23.252;2023-07-31T01:39:22;94827.41;;;20.05;70.66
9261;BME280;4667;42.726;23.252;2023-07-31T01:41:50;94831.38;;;20.07;70.49
9261;BME280;4667;42.726;23.252;2023-07-31T01:44:17;94823.94;;;19.95;71.02
9261;BME280;4667;42.726;23.252;2023-07-31T01:46:44;94833.53;;;20.05;70.60
9261;BME280;4667;42.726;23.252;2023-07-31T01:49:10;94833.75;;;19.91;71.37
9261;BME280;4667;42.726;23.252;2023-07-31T01:51:37;94835.44;;;19.96;71.12
9261;BME280;4667;42.726;23.252;2023-07-31T01:54:04;94835.31;;;19.92;71.27
9261;BME280;4667;42.726;23.252;2023-07-31T01:56:31;94840.34;;;19.94;71.45
9261;BME280;4667;42.726;23.252;2023-07-31T01:58:59;94836.41;;;19.91;71.71
9261;BME280;4667;42.726;23.252;2023-07-31T02:01:25;94837.19;;;19.92;71.88
9261;BME280;4667;42.726;23.252;2023-07-31T02:03:52;94838.28;;;19.91;71.96
9261;BME280;4667;42.726;23.252;2023-07-31T02:06:19;94840.34;;;20.03;71.91
9261;BME280;4667;42.726;23.252;2023-07-31T02:08:46;94829.94;;;20.01;71.79
9261;BME280;4667;42.726;23.252;2023-07-31T02:11:12;94839.84;;;20.09;71.95
9261;BME280;4667;42.726;23.252;2023-07-31T02:13:39;94835.44;;;20.22;71.54
9261;BME280;4667;42.726;23.252;2023-07-31T02:16:07;94827.72;;;20.20;71.70
9261;BME280;4667;42.726;23.252;2023-07-31T02:18:34;94829.44;;;20.25;71.55
9261;BME280;4667;42.726;23.252;2023-07-31T02:21:00;94833.97;;;20.42;71.09
9261;BME280;4667;42.726;23.252;2023-07-31T02:23:27;94833.50;;;20.40;70.85
9261;BME280;4667;42.726;23.252;2023-07-31T02:25:54;94839.81;;;20.53;70.67
9261;BME280;4667;42.726;23.252;2023-07-31T02:28:20;94835.34;;;20.65;70.31
9261;BME280;4667;42.726;23.252;2023-07-31T02:30:47;94839.00;;;20.52;70.55
9261;BME280;4667;42.726;23.252;2023-07-31T02:33:17;94839.16;;;20.64;70.35
9261;BME280;4667;42.726;23.252;2023-07-31T02:35:44;94839.13;;;20.73;70.05
9261;BME280;4667;42.726;23.252;2023-07-31T02:38:11;94849.34;;;20.80;69.88
9261;BME280;4667;42.726;23.252;2023-07-31T02:40:39;94770.19;;;20.26;69.77
9261;BME280;4667;42.726;23.252;2023-07-31T02:43:06;94847.19;;;20.64;70.07
9261;BME280;4667;42.726;23.252;2023-07-31T02:45:33;94846.34;;;20.72;69.73
9261;BME280;4667;42.726;23.252;2023-07-31T02:48:00;94849.19;;;20.76;69.70
9261;BME280;4667;42.726;23.252;2023-07-31T02:50:28;94837.88;;;20.70;69.46
9261;BME280;4667;42.726;23.252;2023-07-31T02:52:55;94842.69;;;20.86;68.70
9261;BME280;4667;42.726;23.252;2023-07-31T02:55:21;94850.72;;;20.86;68.98
9261;BME280;4667;42.726;23.252;2023-07-31T02:57:48;94852.59;;;20.94;68.60
9261;BME280;4667;42.726;23.252;2023-07-31T03:00:15;94858.25;;;21.01;69.06
9261;BME280;4667;42.726;23.252;2023-07-31T03:02:41;94862.97;;;21.04;68.43
9261;BME280;4667;42.726;23.252;2023-07-31T03:05:08;94862.66;;;20.97;68.33
9261;BME280;4667;42.726;23.252;2023-07-31T03:07:36;94859.28;;;21.09;68.08
9261;BME280;4667;42.726;23.252;2023-07-31T03:10:03;94868.97;;;21.01;68.42
9261;BME280;4667;42.726;23.252;2023-07-31T03:12:30;94864.66;;;21.09;68.61
9261;BME280;4667;42.726;23.252;2023-07-31T03:14:57;94874.06;;;21.23;68.56
9261;BME280;4667;42.726;23.252;2023-07-31T03:17:24;94857.47;;;21.00;68.64
9261;BME280;4667;42.726;23.252;2023-07-31T03:19:50;94865.59;;;21.13;68.37
9261;BME280;4667;42.726;23.252;2023-07-31T03:22:17;94873.47;;;21.18;68.09
9261;BME280;4667;42.726;23.252;2023-07-31T03:24:45;94861.50;;;21.15;68.30
9261;BME280;4667;42.726;23.252;2023-07-31T03:27:12;94875.19;;;21.22;67.97
9261;BME280;4667;42.726;23.252;2023-07-31T03:29:39;94879.00;;;21.13;67.57
9261;BME280;4667;42.726;23.252;2023-07-31T03:32:06;94873.16;;;21.19;67.14
9261;BME280;4667;42.726;23.252;2023-07-31T03:34:33;94884.69;;;21.11;67.26
9261;BME280;4667;42.726;23.252;2023-07-31T03:36:59;94880.91;;;21.12;66.86
9261;BME280;4667;42.726;23.252;2023-07-31T03:39:26;94883.78;;;20.98;67.41
9261;BME280;4667;42.726;23.252;2023-07-31T03:41:54;94889.16;;;20.98;67.40
9261;BME280;4667;42.726;23.252;2023-07-31T03:44:21;94885.25;;;20.87;67.83
9261;BME280;4667;42.726;23.252;2023-07-31T03:46:48;94897.75;;;20.83;68.12
9261;BME280;4667;42.726;23.252;2023-07-31T03:49:14;94897.19;;;20.98;67.97
9261;BME280;4667;42.726;23.252;2023-07-31T03:51:41;94901.50;;;20.91;68.79
9261;BME280;4667;42.726;23.252;2023-07-31T03:54:08;94903.38;;;20.99;68.01
9261;BME280;4667;42.726;23.252;2023-07-31T03:56:35;94902.72;;;21.02;67.98
9261;BME280;4667;42.726;23.252;2023-07-31T03:59:04;94870.44;;;20.81;67.87
9261;BME280;4667;42.726;23.252;2023-07-31T04:01:31;94898.78;;;20.99;67.61
9261;BME280;4667;42.726;23.252;2023-07-31T04:03:58;94906.59;;;21.13;67.17
9261;BME280;4667;42.726;23.252;2023-07-31T04:06:24;94899.22;;;21.10;67.22
9261;BME280;4667;42.726;23.252;2023-07-31T04:08:51;94910.97;;;21.26;66.77
9261;BME280;4667;42.726;23.252;2023-07-31T04:11:18;94912.28;;;21.20;67.11
9261;BME280;4667;42.726;23.252;2023-07-31T04:13:44;94906.94;;;21.12;67.16
9261;BME280;4667;42.726;23.252;2023-07-31T04:16:12;94903.47;;;21.11;67.11
9261;BME280;4667;42.726;23.252;2023-07-31T04:18:39;94903.63;;;21.15;67.05
9261;BME280;4667;42.726;23.252;2023-07-31T04:21:06;94910.47;;;20.95;67.56
9261;BME280;4667;42.726;23.252;2023-07-31T04:23:33;94910.25;;;21.09;66.92
9261;BME280;4667;42.726;23.252;2023-07-31T04:25:59;94907.88;;;21.16;66.66
9261;BME280;4667;42.726;23.252;2023-07-31T04:28:26;94916.88;;;21.11;66.81
9261;BME280;4667;42.726;23.252;2023-07-31T04:30:53;94920.91;;;21.26;66.26
9261;BME280;4667;42.726;23.252;2023-07-31T04:33:21;94917.75;;;21.24;66.36
9261;BME280;4667;42.726;23.252;2023-07-31T04:35:51;94905.16;;;21.24;65.97
9261;BME280;4667;42.726;23.252;2023-07-31T04:38:18;94867.59;;;20.86;66.41
9261;BME280;4667;42.726;23.252;2023-07-31T04:40:45;94909.59;;;21.20;66.02
9261;BME280;4667;42.726;23.252;2023-07-31T04:43:12;94911.16;;;21.21;66.13
9261;BME280;4667;42.726;23.252;2023-07-31T04:45:39;94913.84;;;21.30;65.87
9261;BME280;4667;42.726;23.252;2023-07-31T04:48:05;94908.13;;;21.23;65.99
9261;BME280;4667;42.726;23.252;2023-07-31T04:50:33;94911.09;;;21.39;65.37
9261;BME280;4667;42.726;23.252;2023-07-31T04:53:00;94908.75;;;21.37;66.16
9261;BME280;4667;42.726;23.252;2023-07-31T04:55:27;94909.84;;;21.36;65.90
9261;BME280;4667;42.726;23.252;2023-07-31T04:57:53;94894.28;;;21.21;66.08
9261;BME280;4667;42.726;23.252;2023-07-31T05:00:20;94909.81;;;21.45;65.39
9261;BME280;4667;42.726;23.252;2023-07-31T05:02:47;94914.19;;;21.49;65.40
9261;BME280;4667;42.726;23.252;2023-07-31T05:05:14;94902.97;;;21.56;64.28
9261;BME280;4667;42.726;23.252;2023-07-31T05:07:42;94901.81;;;21.66;63.99
9261;BME280;4667;42.726;23.252;2023-07-31T05:10:09;94907.50;;;21.64;64.49
9261;BME280;4667;42.726;23.252;2023-07-31T05:12:35;94907.03;;;21.62;64.93
9261;BME280;4667;42.726;23.252;2023-07-31T05:15:01;94910.13;;;21.73;64.06
9261;BME280;4667;42.726;23.252;2023-07-31T05:17:28;94904.50;;;21.66;64.54
9261;BME280;4667;42.726;23.252;2023-07-31T05:19:54;94903.34;;;21.75;64.02
9261;BME280;4667;42.726;23.252;2023-07-31T05:22:21;94907.63;;;21.68;64.35
9261;BME280;4667;42.726;23.252;2023-07-31T05:24:49;94909.34;;;21.72;64.47
9261;BME280;4667;42.726;23.252;2023-07-31T05:27:16;94902.66;;;21.78;63.49
9261;BME280;4667;42.726;23.252;2023-07-31T05:29:43;94907.41;;;21.82;63.03
9261;BME280;4667;42.726;23.252;2023-07-31T05:32:10;94911.06;;;21.98;61.99
9261;BME280;4667;42.726;23.252;2023-07-31T05:34:37;94917.22;;;21.98;61.71
9261;BME280;4667;42.726;23.252;2023-07-31T05:37:04;94912.25;;;22.09;61.10
9261;BME280;4667;42.726;23.252;2023-07-31T05:39:31;94914.69;;;22.02;60.06
9261;BME280;4667;42.726;23.252;2023-07-31T05:41:59;94913.03;;;21.89;59.86
9261;BME280;4667;42.726;23.252;2023-07-31T05:44:26;94898.03;;;21.88;59.69
9261;BME280;4667;42.726;23.252;2023-07-31T05:46:53;94915.28;;;22.08;59.72
9261;BME280;4667;42.726;23.252;2023-07-31T05:49:19;94905.44;;;21.91;60.16
9261;BME280;4667;42.726;23.252;2023-07-31T05:51:46;94902.00;;;22.11;59.81
9261;BME280;4667;42.726;23.252;2023-07-31T05:54:13;94909.63;;;22.21;59.41
9261;BME280;4667;42.726;23.252;2023-07-31T05:56:39;94907.28;;;22.20;58.91
9261;BME280;4667;42.726;23.252;2023-07-31T05:59:08;94917.63;;;22.09;58.96
9261;BME280;4667;42.726;23.252;2023-07-31T06:01:35;94917.84;;;22.25;59.12
9261;BME280;4667;42.726;23.252;2023-07-31T06:04:02;94925.44;;;22.44;58.21
9261;BME280;4667;42.726;23.252;2023-07-31T06:06:29;94932.16;;;22.50;57.99
9261;BME280;4667;42.726;23.252;2023-07-31T06:08:56;94931.78;;;22.72;56.71
9261;BME280;4667;42.726;23.252;2023-07-31T06:11:23;94937.97;;;22.73;55.98
9261;BME280;4667;42.726;23.252;2023-07-31T06:13:49;94929.38;;;22.79;56.06
9261;BME280;4667;42.726;23.252;2023-07-31T06:16:18;94921.94;;;22.64;56.53
9261;BME280;4667;42.726;23.252;2023-07-31T06:18:45;94922.53;;;22.82;56.05
9261;BME280;4667;42.726;23.252;2023-07-31T06:21:11;94933.84;;;22.75;55.75
9261;BME280;4667;42.726;23.252;2023-07-31T06:23:38;94922.91;;;22.93;54.97
9261;BME280;4667;42.726;23.252;2023-07-31T06:26:05;94925.34;;;22.86;55.32
9261;BME280;4667;42.726;23.252;2023-07-31T06:28:32;94920.47;;;23.00;55.27
9261;BME280;4667;42.726;23.252;2023-07-31T06:30:58;94930.81;;;22.77;55.31
9261;BME280;4667;42.726;23.252;2023-07-31T06:33:27;94929.34;;;23.00;55.42
9261;BME280;4667;42.726;23.252;2023-07-31T06:35:54;94933.94;;;23.00;55.19
9261;BME280;4667;42.726;23.252;2023-07-31T06:38:22;94935.31;;;22.85;53.98
9261;BME280;4667;42.726;23.252;2023-07-31T06:40:50;94912.53;;;22.70;54.53
9261;BME280;4667;42.726;23.252;2023-07-31T06:43:17;94907.84;;;22.79;54.41
9261;BME280;4667;42.726;23.252;2023-07-31T06:45:43;94945.63;;;23.16;53.35
9261;BME280;4667;42.726;23.252;2023-07-31T06:48:11;94919.97;;;23.19;52.98
9261;BME280;4667;42.726;23.252;2023-07-31T06:50:39;94937.09;;;23.26;52.66
9261;BME280;4667;42.726;23.252;2023-07-31T06:53:06;94943.50;;;23.58;52.46
9261;BME280;4667;42.726;23.252;2023-07-31T06:55:33;94938.34;;;23.53;51.77
9261;BME280;4667;42.726;23.252;2023-07-31T06:57:59;94927.81;;;23.60;51.20
9261;BME280;4667;42.726;23.252;2023-07-31T07:00:27;94799.19;;;22.68;51.25
9261;BME280;4667;42.726;23.252;2023-07-31T07:02:54;94930.50;;;23.60;50.63
9261;BME280;4667;42.726;23.252;2023-07-31T07:05:20;94937.00;;;23.47;51.22
9261;BME280;4667;42.726;23.252;2023-07-31T07:07:49;94914.81;;;23.26;51.76
9261;BME280;4667;42.726;23.252;2023-07-31T07:10:15;94919.06;;;23.51;51.92
9261;BME280;4667;42.726;23.252;2023-07-31T07:12:42;94823.19;;;22.98;52.54
9261;BME280;4667;42.726;23.252;2023-07-31T07:15:09;94905.28;;;23.41;51.95
9261;BME280;4667;42.726;23.252;2023-07-31T07:17:36;94916.03;;;23.41;52.35
9261;BME280;4667;42.726;23.252;2023-07-31T07:20:04;94919.97;;;23.43;52.06
9261;BME280;4667;42.726;23.252;2023-07-31T07:22:31;94917.06;;;23.36;52.74
9261;BME280;4667;42.726;23.252;2023-07-31T07:24:59;94916.59;;;23.46;51.94
9261;BME280;4667;42.726;23.252;2023-07-31T07:27:25;94907.84;;;23.37;51.59
9261;BME280;4667;42.726;23.252;2023-07-31T07:29:52;94914.91;;;23.42;52.54
9261;BME280;4667;42.726;23.252;2023-07-31T07:32:19;94890.13;;;23.36;51.55
9261;BME280;4667;42.726;23.252;2023-07-31T07:34:47;94917.16;;;23.52;50.94
9261;BME280;4667;42.726;23.252;2023-07-31T07:37:14;94876.69;;;23.36;50.36
9261;BME280;4667;42.726;23.252;2023-07-31T07:39:41;94912.47;;;23.61;50.69
9261;BME280;4667;42.726;23.252;2023-07-31T07:42:09;94919.31;;;23.71;49.98
9261;BME280;4667;42.726;23.252;2023-07-31T07:44:36;94922.09;;;23.86;49.69
9261;BME280;4667;42.726;23.252;2023-07-31T07:47:03;94926.78;;;24.02;50.19
9261;BME280;4667;42.726;23.252;2023-07-31T07:49:31;94916.03;;;24.02;49.62
9261;BME280;4667;42.726;23.252;2023-07-31T07:51:58;94913.19;;;24.10;49.37
9261;BME280;4667;42.726;23.252;2023-07-31T07:54:24;94934.66;;;24.07;49.85
9261;BME280;4667;42.726;23.252;2023-07-31T07:56:51;94903.94;;;23.83;49.75
9261;BME280;4667;42.726;23.252;2023-07-31T07:59:20;94918.69;;;24.14;48.43
9261;BME280;4667;42.726;23.252;2023-07-31T08:01:46;94931.91;;;24.19;49.01
9261;BME280;4667;42.726;23.252;2023-07-31T08:04:13;94918.31;;;24.16;47.86
9261;BME280;4667;42.726;23.252;2023-07-31T08:06:40;94901.13;;;24.32;47.58
9261;BME280;4667;42.726;23.252;2023-07-31T08:09:06;94910.41;;;24.35;46.66
9261;BME280;4667;42.726;23.252;2023-07-31T08:11:34;94927.53;;;24.67;46.53
9261;BME280;4667;42.726;23.252;2023-07-31T08:14:01;94918.59;;;24.95;46.83
9261;BME280;4667;42.726;23.252;2023-07-31T08:16:29;94922.16;;;24.83;47.15
9261;BME280;4667;42.726;23.252;2023-07-31T08:18:56;94923.47;;;24.89;45.78
9261;BME280;4667;42.726;23.252;2023-07-31T08:21:22;94886.91;;;24.92;46.13
9261;BME280;4667;42.726;23.252;2023-07-31T08:23:49;94905.00;;;25.19;45.39
9261;BME280;4667;42.726;23.252;2023-07-31T08:26:17;94840.81;;;24.97;45.21
9261;BME280;4667;42.726;23.252;2023-07-31T08:28:44;94921.84;;;25.79;43.81
9261;BME280;4667;42.726;23.252;2023-07-31T08:31:11;94813.50;;;25.30;42.33
9261;BME280;4667;42.726;23.252;2023-07-31T08:33:39;94867.19;;;25.51;42.57
9261;BME280;4667;42.726;23.252;2023-07-31T08:36:06;94911.22;;;26.22;42.21
9261;BME280;4667;42.726;23.252;2023-07-31T08:38:33;94896.97;;;26.25;42.92
9261;BME280;4667;42.726;23.252;2023-07-31T08:41:00;94924.25;;;26.55;42.13
9261;BME280;4667;42.726;23.252;2023-07-31T08:43:27;94914.97;;;26.94;40.68
9261;BME280;4667;42.726;23.252;2023-07-31T08:45:54;94911.22;;;27.45;39.26
9261;BME280;4667;42.726;23.252;2023-07-31T08:48:21;94899.81;;;28.12;39.23
9261;BME280;4667;42.726;23.252;2023-07-31T08:50:51;94904.75;;;28.63;36.49
9261;BME280;4667;42.726;23.252;2023-07-31T08:53:18;94915.31;;;29.49;35.43
9261;BME280;4667;42.726;23.252;2023-07-31T08:55:45;94891.13;;;29.37;35.21
9261;BME280;4667;42.726;23.252;2023-07-31T08:58:13;94914.09;;;29.43;34.80
9261;BME280;4667;42.726;23.252;2023-07-31T09:00:40;94913.66;;;28.97;36.25
9261;BME280;4667;42.726;23.252;2023-07-31T09:03:13;94926.19;;;29.09;35.12
9261;BME280;4667;42.726;23.252;2023-07-31T09:05:42;94918.59;;;28.88;35.28
9261;BME280;4667;42.726;23.252;2023-07-31T09:08:12;94896.44;;;29.19;35.13
9261;BME280;4667;42.726;23.252;2023-07-31T09:10:43;94919.31;;;29.63;34.80
9261;BME280;4667;42.726;23.252;2023-07-31T09:13:11;94910.97;;;29.41;35.43
9261;BME280;4667;42.726;23.252;2023-07-31T09:15:39;94900.69;;;29.65;34.86
9261;BME280;4667;42.726;23.252;2023-07-31T09:18:06;94903.38;;;30.20;34.60
9261;BME280;4667;42.726;23.252;2023-07-31T09:20:33;94895.50;;;30.04;35.05
9261;BME280;4667;42.726;23.252;2023-07-31T09:23:05;94900.72;;;30.34;33.48
9261;BME280;4667;42.726;23.252;2023-07-31T09:25:35;94903.31;;;30.93;32.01
9261;BME280;4667;42.726;23.252;2023-07-31T09:28:03;94893.03;;;30.50;32.77
9261;BME280;4667;42.726;23.252;2023-07-31T09:30:30;94893.28;;;31.33;31.93
9261;BME280;4667;42.726;23.252;2023-07-31T09:33:01;94843.41;;;31.89;31.60
9261;BME280;4667;42.726;23.252;2023-07-31T09:35:30;94884.88;;;32.57;29.23
9261;BME280;4667;42.726;23.252;2023-07-31T09:37:58;94891.59;;;32.35;29.32
9261;BME280;4667;42.726;23.252;2023-07-31T09:40:27;94885.75;;;32.26;29.45
9261;BME280;4667;42.726;23.252;2023-07-31T09:42:58;94884.25;;;32.11;29.17
9261;BME280;4667;42.726;23.252;2023-07-31T09:45:25;94888.22;;;31.49;30.01
9261;BME280;4667;42.726;23.252;2023-07-31T09:47:52;94883.94;;;31.34;30.10
9261;BME280;4667;42.726;23.252;2023-07-31T09:50:20;94893.94;;;32.22;29.72
9261;BME280;4667;42.726;23.252;2023-07-31T09:52:47;94849.16;;;32.09;29.61
9261;BME280;4667;42.726;23.252;2023-07-31T09:55:14;94887.03;;;31.61;30.67
9261;BME280;4667;42.726;23.252;2023-07-31T09:57:43;94882.38;;;31.54;29.77
9261;BME280;4667;42.726;23.252;2023-07-31T10:00:13;94874.44;;;32.31;28.83
9261;BME280;4667;42.726;23.252;2023-07-31T10:02:41;94872.78;;;32.62;28.47
9261;BME280;4667;42.726;23.252;2023-07-31T10:05:08;94871.75;;;32.20;28.77
9261;BME280;4667;42.726;23.252;2023-07-31T10:07:37;94870.16;;;32.41;28.70
9261;BME280;4667;42.726;23.252;2023-07-31T10:10:07;94878.63;;;32.60;27.84
9261;BME280;4667;42.726;23.252;2023-07-31T10:12:34;94871.47;;;32.88;28.30
9261;BME280;4667;42.726;23.252;2023-07-31T10:15:02;94871.34;;;32.36;28.51
9261;BME280;4667;42.726;23.252;2023-07-31T10:17:31;94880.28;;;32.37;28.19
9261;BME280;4667;42.726;23.252;2023-07-31T10:19:58;94874.91;;;31.94;28.90
9261;BME280;4667;42.726;23.252;2023-07-31T10:22:27;94878.44;;;31.83;29.10
9261;BME280;4667;42.726;23.252;2023-07-31T10:24:57;94831.34;;;31.65;28.53
9261;BME280;4667;42.726;23.252;2023-07-31T10:27:24;94861.97;;;32.26;27.78
9261;BME280;4667;42.726;23.252;2023-07-31T10:29:52;94861.38;;;32.78;27.77
9261;BME280;4667;42.726;23.252;2023-07-31T10:32:19;94858.19;;;32.90;28.40
9261;BME280;4667;42.726;23.252;2023-07-31T10:34:49;94849.56;;;33.54;27.12
9261;BME280;4667;42.726;23.252;2023-07-31T10:37:20;94852.06;;;34.17;27.55
9261;BME280;4667;42.726;23.252;2023-07-31T10:39:55;94847.84;;;34.43;25.97
9261;BME280;4667;42.726;23.252;2023-07-31T10:42:30;94854.88;;;34.75;24.64
9261;BME280;4667;42.726;23.252;2023-07-31T10:44:58;94851.00;;;35.03;25.42
9261;BME280;4667;42.726;23.252;2023-07-31T10:47:26;94850.34;;;35.46;25.56
9261;BME280;4667;42.726;23.252;2023-07-31T10:50:10;94849.34;;;35.09;23.74
9261;BME280;4667;42.726;23.252;2023-07-31T10:52:37;94844.66;;;35.80;24.03
9261;BME280;4667;42.726;23.252;2023-07-31T10:55:15;94837.69;;;35.75;22.88
9261;BME280;4667;42.726;23.252;2023-07-31T10:57:44;94842.59;;;36.07;22.30
9261;BME280;4667;42.726;23.252;2023-07-31T11:00:20;94815.16;;;36.47;23.23
9261;BME280;4667;42.726;23.252;2023-07-31T11:03:02;94837.88;;;36.28;21.51
9261;BME280;4667;42.726;23.252;2023-07-31T11:05:45;94837.66;;;36.18;21.25
9261;BME280;4667;42.726;23.252;2023-07-31T11:08:13;94843.38;;;35.14;22.50
9261;BME280;4667;42.726;23.252;2023-07-31T11:10:40;94833.53;;;34.28;23.17
9261;BME280;4667;42.726;23.252;2023-07-31T11:13:07;94851.38;;;33.20;24.89
9261;BME280;4667;42.726;23.252;2023-07-31T11:15:34;94833.59;;;32.94;25.87
9261;BME280;4667;42.726;23.252;2023-07-31T11:18:00;94840.75;;;32.70;25.46
9261;BME280;4667;42.726;23.252;2023-07-31T11:20:29;94838.13;;;33.15;24.60
9261;BME280;4667;42.726;23.252;2023-07-31T11:23:01;94833.28;;;33.78;23.94
9261;BME280;4667;42.726;23.252;2023-07-31T11:25:29;94830.63;;;33.74;24.73
9261;BME280;4667;42.726;23.252;2023-07-31T11:27:57;94829.81;;;34.15;25.12
9261;BME280;4667;42.726;23.252;2023-07-31T11:30:23;94837.22;;;34.49;24.44
9261;BME280;4667;42.726;23.252;2023-07-31T11:32:50;94831.22;;;34.61;23.79
9261;BME280;4667;42.726;23.252;2023-07-31T11:35:17;94831.59;;;34.59;23.39
9261;BME280;4667;42.726;23.252;2023-07-31T11:37:44;94831.25;;;34.84;23.76
9261;BME280;4667;42.726;23.252;2023-07-31T11:40:13;94832.34;;;34.63;23.93
9261;BME280;4667;42.726;23.252;2023-07-31T11:42:40;94829.97;;;34.92;24.25
9261;BME280;4667;42.726;23.252;2023-07-31T11:45:08;94828.00;;;34.66;23.93
9261;BME280;4667;42.726;23.252;2023-07-31T11:47:36;94824.13;;;35.41;24.22
9261;BME280;4667;42.726;23.252;2023-07-31T11:50:05;94820.63;;;35.40;23.28
9261;BME280;4667;42.726;23.252;2023-07-31T11:52:35;94825.69;;;35.42;23.11
9261;BME280;4667;42.726;23.252;2023-07-31T11:55:04;94812.22;;;35.28;23.29
9261;BME280;4667;42.726;23.252;2023-07-31T11:57:34;94819.56;;;35.34;23.73
9261;BME280;4667;42.726;23.252;2023-07-31T12:00:01;94814.97;;;35.75;23.82
9261;BME280;4667;42.726;23.252;2023-07-31T12:02:28;94805.78;;;35.14;24.08
9261;BME280;4667;42.726;23.252;2023-07-31T12:04:55;94812.03;;;35.15;24.53
9261;BME280;4667;42.726;23.252;2023-07-31T12:07:24;94810.81;;;35.43;23.17
9261;BME280;4667;42.726;23.252;2023-07-31T12:09:52;94809.97;;;35.46;22.92
9261;BME280;4667;42.726;23.252;2023-07-31T12:12:22;94784.00;;;35.54;22.79
9261;BME280;4667;42.726;23.252;2023-07-31T12:14:51;94810.53;;;35.10;23.33
9261;BME280;4667;42.726;23.252;2023-07-31T12:17:19;94807.91;;;35.54;22.00
9261;BME280;4667;42.726;23.252;2023-07-31T12:19:48;94801.72;;;34.99;22.51
9261;BME280;4667;42.726;23.252;2023-07-31T12:22:16;94795.06;;;35.47;22.50
9261;BME280;4667;42.726;23.252;2023-07-31T12:24:44;94801.03;;;35.65;22.01
9261;BME280;4667;42.726;23.252;2023-07-31T12:27:11;94784.19;;;36.27;21.97
9261;BME280;4667;42.726;23.252;2023-07-31T12:29:38;94798.25;;;35.89;22.28
9261;BME280;4667;42.726;23.252;2023-07-31T12:32:20;94799.66;;;35.30;22.04
9261;BME280;4667;42.726;23.252;2023-07-31T12:34:47;94793.81;;;35.28;22.90
9261;BME280;4667;42.726;23.252;2023-07-31T12:37:13;94799.59;;;34.83;23.61
9261;BME280;4667;42.726;23.252;2023-07-31T12:39:40;94800.31;;;33.96;24.23
9261;BME280;4667;42.726;23.252;2023-07-31T12:42:07;94797.84;;;33.67;25.31
9261;BME280;4667;42.726;23.252;2023-07-31T12:44:32;94794.13;;;33.02;25.84
9261;BME280;4667;42.726;23.252;2023-07-31T12:46:59;94791.91;;;32.79;25.89
9261;BME280;4667;42.726;23.252;2023-07-31T12:49:27;94791.72;;;32.48;27.36
9261;BME280;4667;42.726;23.252;2023-07-31T12:51:54;94789.09;;;32.27;27.53
9261;BME280;4667;42.726;23.252;2023-07-31T12:54:20;94773.22;;;32.77;27.37
9261;BME280;4667;42.726;23.252;2023-07-31T12:56:47;94767.13;;;33.56;26.65
9261;BME280;4667;42.726;23.252;2023-07-31T12:59:14;94777.03;;;34.14;25.43
9261;BME280;4667;42.726;23.252;2023-07-31T13:01:41;94770.19;;;34.30;23.71
9261;BME280;4667;42.726;23.252;2023-07-31T13:04:07;94773.59;;;34.95;23.08
9261;BME280;4667;42.726;23.252;2023-07-31T13:06:36;94761.56;;;35.36;22.38
9261;BME280;4667;42.726;23.252;2023-07-31T13:09:03;94773.38;;;35.56;22.74
9261;BME280;4667;42.726;23.252;2023-07-31T13:11:29;94773.16;;;34.70;23.63
9261;BME280;4667;42.726;23.252;2023-07-31T13:13:56;94770.44;;;33.74;23.78